Terminal Aerodrome Forecast
Issued by NWS

Home | Current Version | Previous Version | Text Only | Print | Product List | Glossary On
Versions: 1 2 3 4 5 6 7 8 9 10 11 12 13 14 15 16 17 18
000
FTUS45 KFGZ 292000 AAA
TAFPGA
TAF AMD
KPGA 292038Z 2921/3018 VRB03KT P6SM OVC100
     FM300500 VRB03KT P6SM VCSH OVC050
     FM300800 VRB05KT 5SM -SHRA BKN025 OVC045
     FM301100 18009KT 3SM -RA BR BKN015 OVC025
      AMD NOT SKED=

USA.gov is the U.S. government's official web portal to all federal, state and local government web resources and services.